Time;durP1;ratioP1;P1;durP2;ratioP2;P2;SDS_P1;SDS_P2;PMS_P1;PMS_P2;Temp;Humidity;BMP_temperature;BMP_pressure;BME280_temperature;BME280_humidity;BME280_pressure;Samples;Min_cycle;Max_cycle;Signal;HPM_P1;HPM_P2
2022/03/13 00:00:59;;;;;;;4.30;1.60;;;;;;;7.48;42.80;102216.38;2112828;28;20132;-75
2022/03/13 00:02:21;;;;;;;3.78;1.77;;;;;;;7.46;43.17;102212.78;2106209;28;20105;-75
2022/03/13 00:03:45;;;;;;;2.95;1.80;;;;;;;7.45;42.76;102210.97;2109154;28;20050;-75
2022/03/13 00:05:09;;;;;;;3.22;1.67;;;;;;;7.44;42.81;102203.91;2103559;28;20130;-74
2022/03/13 00:06:35;;;;;;;2.60;1.45;;;;;;;7.45;43.09;102194.31;2109911;28;20066;-75
2022/03/13 00:07:58;;;;;;;4.75;1.90;;;;;;;7.44;42.93;102206.53;2112217;28;20055;-76
2022/03/13 00:09:22;;;;;;;3.83;1.73;;;;;;;7.45;42.53;102200.47;2114468;28;20078;-75
2022/03/13 00:10:47;;;;;;;2.67;1.73;;;;;;;7.42;42.48;102197.66;2103555;28;20067;-76
2022/03/13 00:12:14;;;;;;;5.07;1.45;;;;;;;7.44;42.75;102195.13;2103669;28;20037;-75
2022/03/13 00:13:40;;;;;;;6.10;1.67;;;;;;;7.45;42.82;102194.31;2093973;28;20575;-78
2022/03/13 00:15:03;;;;;;;2.80;1.80;;;;;;;7.41;43.00;102188.00;2108241;28;20047;-75
2022/03/13 00:16:26;;;;;;;2.70;1.77;;;;;;;7.41;42.58;102202.88;2108623;28;20055;-75
2022/03/13 00:17:49;;;;;;;2.33;1.13;;;;;;;7.38;42.32;102176.44;2114452;28;20044;-75
2022/03/13 00:19:13;;;;;;;2.85;1.50;;;;;;;7.38;42.00;102192.19;2106111;28;20078;-75
2022/03/13 00:20:35;;;;;;;2.30;1.15;;;;;;;7.38;41.75;102179.06;2109179;28;20383;-75
2022/03/13 00:21:58;;;;;;;3.55;1.60;;;;;;;7.34;41.69;102185.91;2103491;28;20047;-75
2022/03/13 00:23:20;;;;;;;8.35;1.92;;;;;;;7.33;41.79;102185.81;2100657;28;20052;-75
2022/03/13 00:24:42;;;;;;;5.20;1.92;;;;;;;7.34;41.71;102190.25;2100816;28;20097;-75
2022/03/13 00:26:05;;;;;;;5.00;1.67;;;;;;;7.31;40.85;102185.72;2100586;28;20040;-75
2022/03/13 00:27:30;;;;;;;3.88;1.40;;;;;;;7.30;40.78;102164.63;2109303;28;20071;-74
2022/03/13 00:28:52;;;;;;;5.65;1.45;;;;;;;7.32;40.72;102178.75;2103674;28;20040;-75
2022/03/13 00:30:16;;;;;;;2.85;1.50;;;;;;;7.32;41.07;102177.03;2103428;28;20508;-75
2022/03/13 00:31:40;;;;;;;3.58;1.67;;;;;;;7.36;41.12;102176.34;2093077;28;20044;-75
2022/03/13 00:33:01;;;;;;;5.72;2.08;;;;;;;7.38;41.58;102176.44;2101032;28;20440;-75
2022/03/13 00:34:26;;;;;;;2.53;1.30;;;;;;;7.41;42.18;102181.84;2108865;28;20491;-75
2022/03/13 00:35:49;;;;;;;7.22;1.98;;;;;;;7.40;42.61;102191.47;2111835;28;20460;-75
2022/03/13 00:37:12;;;;;;;4.72;1.60;;;;;;;7.36;43.11;102178.97;2111796;28;20133;-75
2022/03/13 00:38:33;;;;;;;7.10;2.00;;;;;;;7.32;43.38;102170.88;2111825;28;20059;-74
2022/03/13 00:39:56;;;;;;;4.70;1.35;;;;;;;7.30;43.60;102177.75;2103289;28;20044;-75
2022/03/13 00:41:19;;;;;;;3.53;1.73;;;;;;;7.32;43.33;102176.13;2110208;28;20071;-75
2022/03/13 00:42:41;;;;;;;4.85;2.05;;;;;;;7.32;43.06;102170.88;2104671;28;20444;-75
2022/03/13 00:44:05;;;;;;;3.08;1.45;;;;;;;7.32;43.16;102163.88;2093701;28;20041;-75
2022/03/13 00:45:28;;;;;;;7.13;2.00;;;;;;;7.31;42.84;102162.09;2116810;27;20047;-75
2022/03/13 00:46:51;;;;;;;5.45;1.80;;;;;;;7.30;42.76;102170.78;2107282;28;20119;-76
2022/03/13 00:48:13;;;;;;;5.70;1.63;;;;;;;7.30;42.51;102178.66;2110627;28;20123;-75
2022/03/13 00:49:36;;;;;;;1.65;0.82;;;;;;;7.25;41.50;102177.53;2113201;28;20127;-75
2022/03/13 00:50:59;;;;;;;3.80;1.80;;;;;;;7.20;41.37;102182.56;2107202;28;20134;-75
2022/03/13 00:52:22;;;;;;;6.03;1.88;;;;;;;7.19;41.53;102179.84;2104727;28;20503;-74
2022/03/13 00:53:45;;;;;;;9.15;3.28;;;;;;;7.19;41.91;102180.75;2102271;28;20048;-75
2022/03/13 00:55:09;;;;;;;4.82;1.15;;;;;;;7.19;41.55;102183.38;2102485;28;20113;-75
2022/03/13 00:56:31;;;;;;;4.07;1.58;;;;;;;7.16;41.40;102179.66;2110877;28;20032;-75
2022/03/13 00:57:54;;;;;;;4.35;2.10;;;;;;;7.13;41.90;102183.06;2113458;28;20486;-75
2022/03/13 00:59:16;;;;;;;2.15;1.30;;;;;;;7.12;42.53;102183.88;2107322;28;20047;-75
2022/03/13 01:00:38;;;;;;;7.75;1.98;;;;;;;7.13;43.00;102169.03;2102035;28;20342;-75
2022/03/13 01:01:59;;;;;;;2.20;1.40;;;;;;;7.13;42.08;102179.53;2102233;28;20040;-75
2022/03/13 01:03:32;;;;;;;4.97;1.25;;;;;;;7.10;41.33;102172.38;2101790;28;20044;-75
2022/03/13 01:04:56;;;;;;;3.38;1.08;;;;;;;7.05;41.07;102183.47;2104742;28;20063;-76
2022/03/13 01:06:20;;;;;;;2.13;1.23;;;;;;;7.01;41.25;102184.13;2102611;28;20512;-76
2022/03/13 01:07:46;;;;;;;4.00;1.67;;;;;;;7.01;41.56;102182.41;2111155;28;20399;-75
2022/03/13 01:09:07;;;;;;;3.20;1.60;;;;;;;7.03;41.48;102185.09;2113096;28;20130;-76
2022/03/13 01:10:30;;;;;;;1.65;1.35;;;;;;;7.03;41.89;102185.09;2112795;28;20039;-75
2022/03/13 01:11:53;;;;;;;5.75;1.95;;;;;;;7.00;42.12;102196.34;2104702;28;20040;-75
2022/03/13 01:13:15;;;;;;;2.40;0.98;;;;;;;6.99;42.47;102183.16;2110385;28;20060;-76
2022/03/13 01:14:37;;;;;;;5.65;1.83;;;;;;;6.98;42.77;102192.75;2113045;28;20034;-75
2022/03/13 01:16:10;;;;;;;2.20;0.90;;;;;;;6.98;42.78;102184.88;2104465;28;20040;-75
2022/03/13 01:17:33;;;;;;;3.78;1.50;;;;;;;6.98;42.71;102184.88;2113347;28;20395;-75
2022/03/13 01:18:58;;;;;;;4.47;2.05;;;;;;;7.00;42.71;102185.84;2113041;28;20075;-74
2022/03/13 01:20:23;;;;;;;4.75;1.30;;;;;;;7.02;42.84;102186.81;2104928;28;20051;-75
2022/03/13 01:21:46;;;;;;;2.75;1.45;;;;;;;7.02;42.85;102181.56;2113275;28;20163;-75
2022/03/13 01:23:08;;;;;;;7.85;1.42;;;;;;;7.01;42.65;102184.13;2112861;28;20044;-75
2022/03/13 01:24:33;;;;;;;1.30;0.98;;;;;;;7.01;42.43;102195.53;2104508;28;20055;-75
2022/03/13 01:26:34;;;;;;;2.22;1.00;;;;;;;6.96;41.49;102201.34;2110904;28;20075;-75
2022/03/13 01:27:57;;;;;;;2.67;1.33;;;;;;;6.87;40.88;102186.03;2106995;28;20483;-75
2022/03/13 01:29:20;;;;;;;6.05;1.63;;;;;;;6.85;39.15;102202.50;2113109;28;20059;-76
2022/03/13 01:30:43;;;;;;;5.63;1.75;;;;;;;6.82;39.42;102184.88;2104609;28;20074;-75
2022/03/13 01:32:09;;;;;;;4.43;1.90;;;;;;;6.83;39.68;102199.78;2110211;28;20109;-74
2022/03/13 01:33:31;;;;;;;3.85;1.67;;;;;;;6.83;39.49;102207.66;2113298;28;20054;-75
2022/03/13 01:34:55;;;;;;;4.85;1.55;;;;;;;6.81;39.72;102206.69;2104390;28;20102;-74
2022/03/13 01:36:18;;;;;;;2.03;0.88;;;;;;;6.80;39.60;102194.38;2118851;27;20051;-75
2022/03/13 01:37:41;;;;;;;4.25;1.60;;;;;;;6.78;39.92;102198.66;2106996;28;20055;-76
2022/03/13 01:39:09;;;;;;;2.40;1.02;;;;;;;6.79;40.17;102205.69;2107053;28;20055;-75
2022/03/13 01:40:32;;;;;;;4.03;1.48;;;;;;;6.76;40.30;102203.81;2110269;28;20107;-74
2022/03/13 01:41:53;;;;;;;3.53;1.33;;;;;;;6.77;40.75;102204.72;2098524;28;20087;-75
2022/03/13 01:43:16;;;;;;;2.85;1.27;;;;;;;6.76;41.18;102202.94;2101684;28;20048;-75
2022/03/13 01:44:37;;;;;;;4.07;1.65;;;;;;;6.77;40.87;102207.34;2110199;28;20131;-75
2022/03/13 01:46:00;;;;;;;2.80;1.20;;;;;;;6.76;40.68;102209.06;2104248;28;20071;-75
2022/03/13 01:47:23;;;;;;;2.08;0.85;;;;;;;6.75;39.37;102206.38;2110304;28;20047;-75
2022/03/13 01:48:53;;;;;;;1.58;1.10;;;;;;;6.77;39.10;102207.34;2104362;28;20048;-75
2022/03/13 01:50:16;;;;;;;2.60;1.08;;;;;;;6.74;38.81;102204.56;2112376;28;20063;-75
2022/03/13 01:51:39;;;;;;;2.05;0.73;;;;;;;6.73;38.94;102193.16;2115453;28;20371;-76
2022/03/13 01:53:04;;;;;;;4.30;1.55;;;;;;;6.73;39.26;102198.41;2104035;28;20047;-74
2022/03/13 01:54:25;;;;;;;4.13;1.10;;;;;;;6.72;39.32;102190.44;2104336;28;20044;-75
2022/03/13 01:55:48;;;;;;;1.10;0.65;;;;;;;6.71;39.45;102199.13;2101564;28;20040;-75
2022/03/13 01:57:16;;;;;;;15.10;3.15;;;;;;;6.73;39.80;102202.75;2101598;28;20040;-75
2022/03/13 01:58:42;;;;;;;2.83;0.90;;;;;;;6.70;39.80;102203.47;2114114;28;20039;-77
2022/03/13 02:00:07;;;;;;;2.80;1.23;;;;;;;6.71;39.70;102197.41;2104307;28;20410;-77
2022/03/13 02:01:39;;;;;;;2.40;1.17;;;;;;;6.68;39.60;102198.97;2113188;28;20039;-77
2022/03/13 02:03:02;;;;;;;1.48;0.95;;;;;;;6.66;39.95;102192.75;2112801;28;20065;-77
2022/03/13 02:04:26;;;;;;;4.65;2.00;;;;;;;6.68;40.26;102188.50;2104296;28;20098;-77
2022/03/13 02:05:49;;;;;;;3.67;1.23;;;;;;;6.66;40.67;102200.63;2110604;28;20137;-78
2022/03/13 02:07:13;;;;;;;5.20;1.75;;;;;;;6.69;40.62;102195.53;2104178;28;20055;-75
2022/03/13 02:08:36;;;;;;;4.03;1.10;;;;;;;6.67;40.85;102195.47;2104274;28;20036;-75
2022/03/13 02:09:58;;;;;;;2.95;1.45;;;;;;;6.67;41.12;102197.16;2110201;28;20054;-75
2022/03/13 02:11:22;;;;;;;2.95;1.73;;;;;;;6.68;40.94;102188.50;2104111;28;20081;-76
2022/03/13 02:12:47;;;;;;;3.20;1.13;;;;;;;6.66;40.88;102196.28;2110508;28;20096;-75
2022/03/13 02:14:11;;;;;;;4.40;1.08;;;;;;;6.67;41.19;102203.31;2112876;28;20073;-75
2022/03/13 02:15:34;;;;;;;5.80;1.65;;;;;;;6.65;41.82;102189.22;2104525;28;20502;-74
2022/03/13 02:17:00;;;;;;;4.03;1.50;;;;;;;6.67;42.21;102191.94;2110945;28;20523;-74
2022/03/13 02:18:21;;;;;;;5.13;1.42;;;;;;;6.68;42.40;102193.72;2106803;28;20051;-75
2022/03/13 02:19:44;;;;;;;3.00;1.35;;;;;;;6.67;42.53;102178.81;2109684;28;20039;-74
2022/03/13 02:21:07;;;;;;;2.95;1.17;;;;;;;6.67;42.52;102198.09;2095772;28;20143;-77
2022/03/13 02:22:31;;;;;;;8.43;1.60;;;;;;;6.65;42.52;102191.84;2099403;28;20134;-74
2022/03/13 02:24:00;;;;;;;4.45;1.70;;;;;;;6.64;42.08;102194.38;2109965;28;20139;-75
2022/03/13 02:25:24;;;;;;;3.90;2.70;;;;;;;6.61;41.83;102189.88;2096470;28;20041;-75
2022/03/13 02:26:56;;;;;;;3.45;1.58;;;;;;;6.60;41.77;102184.53;2108140;28;20426;-74
2022/03/13 02:28:20;;;;;;;1.60;1.17;;;;;;;6.58;41.74;102196.66;2105401;28;20101;-74
2022/03/13 02:29:43;;;;;;;2.50;1.73;;;;;;;6.56;41.54;102193.97;2110348;28;20047;-74
2022/03/13 02:31:07;;;;;;;4.68;1.38;;;;;;;6.56;41.10;102193.06;2106808;28;20123;-75
2022/03/13 02:32:28;;;;;;;2.65;1.27;;;;;;;6.54;41.39;102186.84;2110267;28;20130;-74
2022/03/13 02:33:53;;;;;;;4.22;1.75;;;;;;;6.53;41.78;102192.88;2103909;28;20415;-74
2022/03/13 02:35:18;;;;;;;3.08;1.65;;;;;;;6.51;42.16;102199.75;2110998;28;20097;-74
2022/03/13 02:36:57;;;;;;;2.67;1.13;;;;;;;6.52;43.09;102199.84;2112243;28;20131;-75
2022/03/13 02:38:20;;;;;;;4.03;1.80;;;;;;;6.52;43.19;102198.94;2114710;28;20067;-75
2022/03/13 02:39:43;;;;;;;3.03;1.75;;;;;;;6.51;43.03;102192.81;2112432;28;20047;-75
2022/03/13 02:41:06;;;;;;;2.25;1.83;;;;;;;6.49;43.12;102185.69;2106537;28;20079;-75
2022/03/13 02:42:28;;;;;;;4.57;1.65;;;;;;;6.52;43.38;102199.84;2101323;28;20067;-74
2022/03/13 02:43:50;;;;;;;2.38;1.25;;;;;;;6.52;43.44;102188.47;2101145;28;20081;-75
2022/03/13 02:45:22;;;;;;;5.65;1.20;;;;;;;6.52;43.73;102194.59;2101104;28;20039;-74
2022/03/13 02:46:54;;;;;;;3.88;1.73;;;;;;;6.52;43.43;102194.59;2112623;28;20039;-75
2022/03/13 02:48:17;;;;;;;7.40;1.98;;;;;;;6.51;43.61;102194.50;2113644;28;20039;-75
2022/03/13 02:49:39;;;;;;;4.07;1.58;;;;;;;6.49;43.63;102190.94;2103934;28;20107;-75
2022/03/13 02:51:01;;;;;;;3.00;1.60;;;;;;;6.48;43.74;102183.88;2103822;28;20437;-75
2022/03/13 02:52:23;;;;;;;4.15;1.70;;;;;;;6.46;43.59;102185.50;2109333;28;20139;-74
2022/03/13 02:53:47;;;;;;;4.78;1.75;;;;;;;6.43;43.48;102183.63;2106496;28;20048;-74
2022/03/13 02:55:12;;;;;;;6.50;1.77;;;;;;;6.42;42.77;102179.19;2101644;28;20049;-75
2022/03/13 02:56:33;;;;;;;4.68;1.30;;;;;;;6.36;41.76;102174.53;2109956;28;20119;-74
2022/03/13 02:57:56;;;;;;;2.55;1.38;;;;;;;6.37;41.08;102171.06;2103684;28;20068;-75
2022/03/13 02:59:17;;;;;;;4.43;1.45;;;;;;;6.39;40.65;102179.91;2109609;28;20043;-74
2022/03/13 03:00:44;;;;;;;4.28;1.13;;;;;;;6.42;40.68;102180.91;2103839;28;20575;-74
2022/03/13 03:02:07;;;;;;;3.53;1.38;;;;;;;6.43;41.16;102177.47;2104215;28;20044;-75
2022/03/13 03:03:29;;;;;;;2.67;1.65;;;;;;;6.46;41.75;102180.25;2103487;28;20044;-75
2022/03/13 03:04:54;;;;;;;2.55;1.33;;;;;;;6.48;42.20;102176.91;2101196;28;20115;-76
2022/03/13 03:06:15;;;;;;;4.07;1.58;;;;;;;6.50;42.52;102177.88;2103930;28;20519;-75
2022/03/13 03:07:38;;;;;;;1.95;1.10;;;;;;;6.49;43.06;102173.47;2109332;28;20122;-75
2022/03/13 03:09:01;;;;;;;3.08;1.13;;;;;;;6.49;42.78;102176.09;2103659;28;20071;-75
2022/03/13 03:10:25;;;;;;;5.40;2.05;;;;;;;6.48;42.45;102179.53;2101323;28;20085;-76
2022/03/13 03:11:48;;;;;;;1.83;1.27;;;;;;;6.46;42.32;102170.66;2110024;28;20440;-75
2022/03/13 03:13:11;;;;;;;4.80;1.73;;;;;;;6.46;42.32;102183.78;2103792;28;20040;-75
2022/03/13 03:14:35;;;;;;;2.35;1.25;;;;;;;6.43;42.05;102181.00;2106393;28;20071;-75
2022/03/13 03:15:56;;;;;;;2.88;1.75;;;;;;;6.43;41.83;102178.38;2101392;28;20050;-76
2022/03/13 03:17:21;;;;;;;8.32;2.38;;;;;;;6.45;41.57;102176.72;2101177;28;20072;-75
2022/03/13 03:18:42;;;;;;;6.07;2.47;;;;;;;6.46;41.70;102190.75;2092759;28;20064;-75
2022/03/13 03:20:06;;;;;;;4.53;1.52;;;;;;;6.46;41.88;102191.66;2098295;28;20048;-75
2022/03/13 03:21:27;;;;;;;3.25;1.45;;;;;;;6.46;42.06;102181.16;2112259;28;20557;-75
2022/03/13 03:22:52;;;;;;;2.72;1.48;;;;;;;6.45;42.17;102184.59;2111948;28;20044;-75
2022/03/13 03:24:17;;;;;;;4.07;1.23;;;;;;;6.42;42.15;102194.94;2112260;28;20082;-75
2022/03/13 03:25:41;;;;;;;3.38;1.65;;;;;;;6.43;42.28;102187.97;2104038;28;20052;-75
2022/03/13 03:27:04;;;;;;;5.78;1.60;;;;;;;6.41;42.56;102190.50;2101941;28;20057;-75
2022/03/13 03:28:27;;;;;;;6.55;2.03;;;;;;;6.41;42.72;102190.50;2092517;28;20044;-75
2022/03/13 03:29:50;;;;;;;7.05;1.75;;;;;;;6.39;42.84;102185.16;2109422;28;20078;-76
2022/03/13 03:31:13;;;;;;;4.53;1.50;;;;;;;6.38;42.96;102185.97;2103506;28;20372;-75
2022/03/13 03:32:36;;;;;;;4.18;1.88;;;;;;;6.38;43.10;102185.06;2109355;28;20057;-76
2022/03/13 03:33:57;;;;;;;2.25;1.23;;;;;;;6.36;43.12;102177.16;2114679;28;20506;-75
2022/03/13 03:35:21;;;;;;;6.20;1.75;;;;;;;6.35;43.29;102180.59;2111940;28;20048;-75
2022/03/13 03:36:45;;;;;;;6.68;1.85;;;;;;;6.33;43.15;102184.81;2114278;28;20052;-75
2022/03/13 03:38:08;;;;;;;2.63;1.35;;;;;;;6.29;42.88;102182.88;2106296;28;20095;-75
2022/03/13 03:39:32;;;;;;;2.97;1.33;;;;;;;6.29;41.79;102181.97;2101077;28;20099;-75
2022/03/13 03:40:55;;;;;;;6.75;1.90;;;;;;;6.30;41.86;102183.78;2101619;28;20044;-75
2022/03/13 03:42:18;;;;;;;4.60;1.80;;;;;;;6.32;41.90;102196.13;2100839;28;20855;-75
2022/03/13 03:43:40;;;;;;;5.82;2.10;;;;;;;6.35;42.18;102208.53;2100935;28;20044;-75
2022/03/13 03:45:03;;;;;;;7.47;1.80;;;;;;;6.35;42.83;102212.06;2100777;28;20082;-74
2022/03/13 03:46:24;;;;;;;5.25;1.40;;;;;;;6.36;43.13;102216.50;2103558;28;20040;-74
2022/03/13 03:47:47;;;;;;;4.00;1.35;;;;;;;6.36;42.30;102206.00;2100627;28;20036;-74
2022/03/13 03:49:08;;;;;;;2.78;1.30;;;;;;;6.34;41.67;102215.50;2103423;28;20131;-75
2022/03/13 03:50:31;;;;;;;3.25;1.75;;;;;;;6.33;41.87;102215.41;2103376;28;20040;-75
2022/03/13 03:51:54;;;;;;;8.60;1.92;;;;;;;6.32;41.80;102218.81;2092598;28;20049;-75
2022/03/13 03:53:16;;;;;;;5.78;2.00;;;;;;;6.30;41.72;102218.72;2106652;28;20564;-75
2022/03/13 03:54:39;;;;;;;5.85;2.03;;;;;;;6.32;41.76;102219.72;2103528;28;20051;-76
2022/03/13 03:56:05;;;;;;;4.18;1.35;;;;;;;6.32;41.63;102217.13;2101282;28;20374;-75
2022/03/13 03:57:27;;;;;;;1.92;1.10;;;;;;;6.28;40.89;102223.00;2109515;28;20411;-75
2022/03/13 03:58:50;;;;;;;5.53;1.80;;;;;;;6.28;39.78;102209.91;2103319;28;20131;-75
2022/03/13 04:00:14;;;;;;;3.15;1.70;;;;;;;6.30;40.14;102208.25;2103419;28;20135;-75
2022/03/13 04:01:40;;;;;;;2.10;0.98;;;;;;;6.30;40.31;102221.34;2109421;28;20698;-75
2022/03/13 04:03:02;;;;;;;3.40;1.35;;;;;;;6.32;40.48;102204.00;2112492;28;20407;-75
2022/03/13 04:04:24;;;;;;;7.00;2.35;;;;;;;6.34;40.60;102225.06;2103370;28;20060;-74
2022/03/13 04:05:47;;;;;;;5.95;1.50;;;;;;;6.34;40.70;102219.81;2092575;28;20079;-75
2022/03/13 04:07:10;;;;;;;3.58;1.92;;;;;;;6.34;41.06;102217.22;2098444;28;20071;-75
2022/03/13 04:08:33;;;;;;;3.58;1.30;;;;;;;6.35;41.21;102219.91;2109148;28;20532;-74
2022/03/13 04:09:55;;;;;;;6.30;2.28;;;;;;;6.36;41.50;102215.59;2111913;28;20050;-75
2022/03/13 04:11:18;;;;;;;3.03;0.95;;;;;;;6.38;41.54;102220.06;2106012;28;20486;-75
2022/03/13 04:12:41;;;;;;;3.42;1.92;;;;;;;6.38;41.52;102220.06;2109249;28;20131;-75
2022/03/13 04:14:05;;;;;;;4.38;1.60;;;;;;;6.39;41.45;102224.50;2112036;28;20136;-75
2022/03/13 04:15:28;;;;;;;4.35;1.40;;;;;;;6.41;41.67;102216.72;2111824;28;20047;-75
2022/03/13 04:16:52;;;;;;;2.97;1.30;;;;;;;6.40;41.84;102233.28;2107548;28;20048;-75
2022/03/13 04:18:14;;;;;;;1.70;1.45;;;;;;;6.39;41.85;102236.72;2102626;28;20423;-75
2022/03/13 04:19:37;;;;;;;1.90;1.27;;;;;;;6.36;41.68;102229.59;2110786;28;20148;-75
2022/03/13 04:20:59;;;;;;;3.63;2.13;;;;;;;6.34;41.06;102236.47;2104976;28;20111;-77
2022/03/13 04:22:22;;;;;;;3.70;1.85;;;;;;;6.34;40.60;102233.84;2102393;28;20093;-77
2022/03/13 04:23:43;;;;;;;3.22;1.30;;;;;;;6.32;40.32;102235.47;2102485;28;20130;-77
2022/03/13 04:25:07;;;;;;;3.35;1.75;;;;;;;6.32;40.53;102240.72;2102530;28;20051;-77
2022/03/13 04:26:31;;;;;;;4.03;1.42;;;;;;;6.31;40.35;102245.88;2105070;28;20475;-77
2022/03/13 04:27:54;;;;;;;12.43;1.60;;;;;;;6.28;40.16;102238.75;2113479;28;20131;-77
2022/03/13 04:29:18;;;;;;;2.28;1.70;;;;;;;6.28;39.95;102238.75;2104805;28;20403;-77
2022/03/13 04:30:40;;;;;;;2.25;1.30;;;;;;;6.28;40.14;102238.75;2102647;28;20190;-77
2022/03/13 04:32:08;;;;;;;3.17;1.70;;;;;;;6.29;40.12;102240.56;2102320;28;20075;-77
2022/03/13 04:33:33;;;;;;;3.90;1.60;;;;;;;6.31;40.04;102238.00;2112313;28;20047;-77
2022/03/13 04:34:55;;;;;;;3.50;1.48;;;;;;;6.32;40.27;102251.19;2107804;28;20047;-77
2022/03/13 04:36:20;;;;;;;6.85;2.20;;;;;;;6.34;40.43;102248.69;2113146;28;20056;-77
2022/03/13 04:37:43;;;;;;;5.80;2.88;;;;;;;6.33;40.35;102247.75;2105155;28;20075;-77
2022/03/13 04:39:07;;;;;;;6.00;2.38;;;;;;;6.32;40.67;102258.16;2102733;28;20538;-77
2022/03/13 04:40:28;;;;;;;2.35;1.55;;;;;;;6.29;40.64;102264.16;2119510;27;20130;-77
2022/03/13 04:41:52;;;;;;;5.47;2.65;;;;;;;6.31;40.65;102264.22;2107490;28;20040;-77
2022/03/13 04:43:14;;;;;;;6.78;2.45;;;;;;;6.27;40.38;102252.66;2104991;28;20530;-77
2022/03/13 04:44:36;;;;;;;9.10;2.40;;;;;;;6.28;40.38;102261.44;2104764;28;20146;-77
2022/03/13 04:45:59;;;;;;;5.97;2.30;;;;;;;6.26;40.63;102261.34;2102410;28;20072;-76
2022/03/13 04:47:22;;;;;;;3.78;1.75;;;;;;;6.25;40.11;102249.03;2110724;28;20138;-77
2022/03/13 04:48:45;;;;;;;3.28;1.73;;;;;;;6.27;39.68;102257.00;2104700;28;20047;-77
2022/03/13 04:50:08;;;;;;;8.07;2.58;;;;;;;6.33;39.67;102254.72;2102373;28;20086;-77
2022/03/13 04:51:31;;;;;;;4.03;1.50;;;;;;;6.36;39.89;102263.69;2119266;27;20035;-77
2022/03/13 04:52:54;;;;;;;8.98;3.08;;;;;;;6.39;40.65;102255.06;2107368;28;20096;-77
2022/03/13 04:54:18;;;;;;;3.83;2.15;;;;;;;6.43;41.06;102259.69;2110636;28;20066;-76
2022/03/13 04:55:41;;;;;;;2.20;1.77;;;;;;;6.49;41.37;102260.03;2113511;28;20044;-77
2022/03/13 04:57:09;;;;;;;3.63;1.75;;;;;;;6.56;41.74;102266.53;2105531;28;20127;-77
2022/03/13 04:58:33;;;;;;;36.53;9.35;;;;;;;6.57;42.05;102260.44;2096565;28;20086;-77
2022/03/13 04:59:56;;;;;;;19.00;5.28;;;;;;;6.59;42.20;102251.84;2108098;28;20035;-77
2022/03/13 05:01:20;;;;;;;7.90;2.88;;;;;;;6.65;42.31;102267.03;2107506;28;20105;-77
2022/03/13 05:02:43;;;;;;;8.75;2.53;;;;;;;6.68;42.38;102260.25;2102610;28;20361;-77
2022/03/13 05:04:06;;;;;;;9.35;3.13;;;;;;;6.72;42.43;102263.91;2102328;28;20056;-77
2022/03/13 05:05:28;;;;;;;6.32;2.80;;;;;;;6.76;42.33;102260.66;2107163;28;20405;-77
2022/03/13 05:06:50;;;;;;;5.55;2.60;;;;;;;6.83;42.42;102267.16;2093457;28;20583;-77
2022/03/13 05:08:15;;;;;;;5.40;2.28;;;;;;;6.97;42.22;102272.31;2107958;28;20063;-77
2022/03/13 05:09:37;;;;;;;6.07;2.67;;;;;;;7.02;42.22;102265.56;2105079;28;20113;-77
2022/03/13 05:11:00;;;;;;;7.60;3.58;;;;;;;7.05;41.92;102275.34;2102069;28;20054;-77
2022/03/13 05:12:28;;;;;;;3.67;2.03;;;;;;;7.04;41.92;102274.44;2102518;28;20044;-77
2022/03/13 05:13:50;;;;;;;6.75;3.15;;;;;;;7.00;41.86;102267.25;2103548;28;20076;-77
2022/03/13 05:15:13;;;;;;;4.93;2.25;;;;;;;7.00;41.93;102262.00;2110330;28;20044;-77
2022/03/13 05:16:35;;;;;;;6.45;2.35;;;;;;;7.01;41.95;102269.06;2113012;28;20043;-77
2022/03/13 05:17:57;;;;;;;6.38;1.90;;;;;;;7.01;41.68;102269.06;2112958;28;20063;-78
2022/03/13 05:19:19;;;;;;;3.42;1.73;;;;;;;7.04;41.76;102265.66;2112936;28;20051;-77
2022/03/13 05:20:42;;;;;;;2.25;1.20;;;;;;;7.08;42.00;102270.28;2104460;28;20114;-77
2022/03/13 05:22:05;;;;;;;2.50;1.60;;;;;;;7.08;42.31;102268.56;2104626;28;20044;-77
2022/03/13 05:23:29;;;;;;;2.35;1.13;;;;;;;7.09;42.30;102270.34;2110361;28;20084;-77
2022/03/13 05:24:50;;;;;;;3.53;1.77;;;;;;;7.05;42.07;102260.50;2104675;28;20043;-77
2022/03/13 05:26:12;;;;;;;4.85;1.83;;;;;;;7.09;41.79;102275.59;2118683;27;20413;-77
2022/03/13 05:27:35;;;;;;;5.60;2.40;;;;;;;7.13;41.57;102274.97;2114575;28;20488;-77
2022/03/13 05:28:58;;;;;;;3.13;1.70;;;;;;;7.14;41.67;102281.13;2104470;28;20146;-77
2022/03/13 05:30:23;;;;;;;4.32;2.13;;;;;;;7.13;41.63;102289.81;2110183;28;20055;-77
2022/03/13 05:31:46;;;;;;;5.00;2.30;;;;;;;7.05;41.25;102284.13;2105006;28;20040;-77
2022/03/13 05:33:08;;;;;;;3.33;1.58;;;;;;;7.02;41.14;102283.09;2110445;28;20039;-77
2022/03/13 05:34:31;;;;;;;4.38;2.13;;;;;;;6.99;41.05;102283.81;2107251;28;20077;-77
2022/03/13 05:35:53;;;;;;;1.98;1.35;;;;;;;6.97;39.95;102295.03;2110181;28;20074;-77
2022/03/13 05:37:14;;;;;;;2.72;1.60;;;;;;;6.97;39.89;102293.31;2104524;28;20036;-77
2022/03/13 05:38:37;;;;;;;4.85;2.00;;;;;;;7.04;40.13;102294.53;2110145;28;20040;-77
2022/03/13 05:40:00;;;;;;;2.55;1.30;;;;;;;7.15;40.30;102290.81;2104714;28;20051;-77
2022/03/13 05:41:22;;;;;;;6.75;1.35;;;;;;;7.30;40.15;102293.31;2093308;28;20045;-77
2022/03/13 05:42:49;;;;;;;3.35;0.98;;;;;;;7.51;40.21;102300.63;2107880;28;20101;-77
2022/03/13 05:44:12;;;;;;;1.88;1.17;;;;;;;7.68;39.77;102290.97;2104944;28;20044;-77
2022/03/13 05:45:35;;;;;;;1.77;0.88;;;;;;;7.96;39.41;102290.66;2104511;28;20556;-77
2022/03/13 05:46:58;;;;;;;1.48;0.90;;;;;;;8.26;38.14;102286.06;2104689;28;20048;-75
2022/03/13 05:48:20;;;;;;;1.85;1.08;;;;;;;8.53;37.43;102292.72;2112726;28;20428;-76
2022/03/13 05:49:44;;;;;;;1.48;1.02;;;;;;;8.69;36.80;102287.34;2112680;28;20040;-76
2022/03/13 05:51:06;;;;;;;2.58;1.65;;;;;;;8.67;37.30;102285.44;2112961;28;20044;-76
2022/03/13 05:52:29;;;;;;;3.15;1.40;;;;;;;8.65;38.01;102293.28;2112929;28;20055;-75
2022/03/13 05:53:51;;;;;;;3.30;1.67;;;;;;;8.72;38.33;102298.03;2095892;28;20048;-75
2022/03/13 05:55:15;;;;;;;4.63;2.63;;;;;;;8.92;38.56;102296.34;2110289;28;20047;-75
2022/03/13 05:56:38;;;;;;;3.38;2.20;;;;;;;9.20;38.83;102301.13;2107043;28;20032;-76
2022/03/13 05:58:01;;;;;;;3.97;2.05;;;;;;;9.48;39.05;102293.63;2112793;28;20048;-76
2022/03/13 05:59:25;;;;;;;2.65;1.42;;;;;;;9.72;39.42;102298.16;2104467;28;20380;-76
2022/03/13 06:01:04;;;;;;;4.72;1.45;;;;;;;9.94;40.14;102299.19;2119002;27;20055;-76
2022/03/13 06:02:28;;;;;;;6.28;1.80;;;;;;;10.18;40.50;102295.78;2115316;28;20075;-76
2022/03/13 06:03:51;;;;;;;4.10;1.17;;;;;;;10.41;40.42;102294.13;2096226;28;20569;-76
2022/03/13 06:05:13;;;;;;;3.85;1.42;;;;;;;10.59;40.62;102305.41;2099539;28;20060;-76
2022/03/13 06:06:37;;;;;;;5.30;1.25;;;;;;;10.88;40.48;102303.94;2101916;28;20526;-77
2022/03/13 06:07:58;;;;;;;2.72;1.13;;;;;;;11.19;40.74;102314.84;2101751;28;20071;-77
2022/03/13 06:09:21;;;;;;;3.70;1.20;;;;;;;11.41;40.73;102314.81;2112410;28;20125;-77
2022/03/13 06:10:42;;;;;;;2.50;1.25;;;;;;;11.68;40.79;102304.34;2104243;28;20092;-75
2022/03/13 06:12:05;;;;;;;1.90;1.05;;;;;;;11.88;40.52;102305.09;2112595;28;20116;-77
2022/03/13 06:13:30;;;;;;;3.78;1.35;;;;;;;11.98;40.77;102302.81;2104302;28;20131;-77
2022/03/13 06:14:53;;;;;;;1.80;1.10;;;;;;;12.18;40.66;102305.22;2110358;28;20161;-77
2022/03/13 06:16:18;;;;;;;2.83;1.35;;;;;;;12.31;40.73;102308.34;2112486;28;20096;-78
2022/03/13 06:17:43;;;;;;;3.88;1.90;;;;;;;12.38;40.77;102312.09;2112977;28;20061;-77
2022/03/13 06:19:06;;;;;;;16.52;6.05;;;;;;;12.54;40.95;102306.44;2112636;28;20467;-77
2022/03/13 06:20:29;;;;;;;9.63;3.10;;;;;;;12.61;39.93;102321.69;2104141;28;20056;-77
2022/03/13 06:21:52;;;;;;;6.30;1.80;;;;;;;12.48;39.03;102308.88;2104285;28;20111;-77
2022/03/13 06:23:13;;;;;;;4.30;2.25;;;;;;;12.28;38.06;102315.25;2101679;28;20063;-77
2022/03/13 06:24:36;;;;;;;4.68;1.65;;;;;;;12.09;36.92;102308.44;2101285;28;20040;-76
2022/03/13 06:26:00;;;;;;;7.05;2.75;;;;;;;11.84;36.23;102314.66;2110103;28;20486;-76
2022/03/13 06:27:22;;;;;;;8.13;4.05;;;;;;;11.83;36.58;102309.28;2104021;28;20395;-76
2022/03/13 06:28:46;;;;;;;8.23;4.18;;;;;;;12.04;36.69;102310.03;2112550;28;20098;-76
2022/03/13 06:30:16;;;;;;;6.03;2.80;;;;;;;12.22;35.65;102331.84;2112901;28;20063;-76
2022/03/13 06:31:39;;;;;;;5.93;3.38;;;;;;;12.18;35.27;102322.00;2106676;28;20119;-76
2022/03/13 06:33:02;;;;;;;5.57;3.03;;;;;;;12.20;34.66;102311.50;2118122;27;20529;-76